Aviation Digital Data Service (ADDS)

Output produced by METARs form (0844 UTC 24 March 2019)
found at http://www.aviationweather.gov/metar/data/
 
METAR text: MNMG 240400Z 10012KT CAVOK CAVOK 28/14 Q1014 A2994 NOSIG
Conditions at: MNMG (MANAGUA/AUGUSTO , NI) observed 0400 UTC 24 March 2019
Temperature: 28.0°C (82°F)
Dewpoint: 14.0°C (57°F) [RH = 42%]
Pressure (altimeter): 29.94 inches Hg (1014.0 mb)
Winds: from the E (100 degrees) at 14 MPH (12 knots; 6.2 m/s)
Visibility: 6 or more miles (10+ km)
Ceiling: ceiling and visibility are OK
Clouds: unknown
Weather: no significant weather observed at this time

METAR text: MNMG 240300Z 10010KT CAVOK CAVOK 28/14 Q1013 A2994 NOSIG
Conditions at: MNMG (MANAGUA/AUGUSTO , NI) observed 0300 UTC 24 March 2019
Temperature: 28.0°C (82°F)
Dewpoint: 14.0°C (57°F) [RH = 42%]
Pressure (altimeter): 29.91 inches Hg (1013.0 mb)
Winds: from the E (100 degrees) at 12 MPH (10 knots; 5.1 m/s)
Visibility: 6 or more miles (10+ km)
Ceiling: ceiling and visibility are OK
Clouds: unknown
Weather: no significant weather observed at this time

METAR text: MNMG 240200Z 13008KT CAVOK CAVOK 28/15 Q1012 A2990 NOSIG
Conditions at: MNMG (MANAGUA/AUGUSTO , NI) observed 0200 UTC 24 March 2019
Temperature: 28.0°C (82°F)
Dewpoint: 15.0°C (59°F) [RH = 45%]
Pressure (altimeter): 29.88 inches Hg (1012.0 mb)
Winds: from the SE (130 degrees) at 9 MPH (8 knots; 4.1 m/s)
Visibility: 6 or more miles (10+ km)
Ceiling: ceiling and visibility are OK
Clouds: unknown
Weather: no significant weather observed at this time

METAR text: MNMG 240100Z 12008KT CAVOK CAVOK 29/16 Q1011 A2988 NOSIG
Conditions at: MNMG (MANAGUA/AUGUSTO , NI) observed 0100 UTC 24 March 2019
Temperature: 29.0°C (84°F)
Dewpoint: 16.0°C (61°F) [RH = 45%]
Pressure (altimeter): 29.85 inches Hg (1011.0 mb)
Winds: from the ESE (120 degrees) at 9 MPH (8 knots; 4.1 m/s)
Visibility: 6 or more miles (10+ km)
Ceiling: ceiling and visibility are OK
Clouds: unknown
Weather: no significant weather observed at this time

METAR text: MNMG 240000Z 12012KT CAVOK CAVOK 31/15 Q1010 A2984 NOSIG
Conditions at: MNMG (MANAGUA/AUGUSTO , NI) observed 0000 UTC 24 March 2019
Temperature: 31.0°C (88°F)
Dewpoint: 15.0°C (59°F) [RH = 38%]
Pressure (altimeter): 29.82 inches Hg (1010.0 mb)
Winds: from the ESE (120 degrees) at 14 MPH (12 knots; 6.2 m/s)
Visibility: 6 or more miles (10+ km)
Ceiling: ceiling and visibility are OK
Clouds: unknown
Weather: no significant weather observed at this time

METAR text: MNMG 232300Z 12012KT CAVOK 32/15 Q1009 A2981 NOSIG
Conditions at: MNMG (MANAGUA/AUGUSTO , NI) observed 2300 UTC 23 March 2019
Temperature: 32.0°C (90°F)
Dewpoint: 15.0°C (59°F) [RH = 36%]
Pressure (altimeter): 29.79 inches Hg (1009.0 mb)
Winds: from the ESE (120 degrees) at 14 MPH (12 knots; 6.2 m/s)
Visibility: 6 or more miles (10+ km)
Ceiling: ceiling and visibility are OK
Clouds: unknown
Weather: no significant weather observed at this time

METAR text: MNMG 232200Z 12014KT CAVOK 33/15 Q1009 A2981 NOSIG
Conditions at: MNMG (MANAGUA/AUGUSTO , NI) observed 2200 UTC 23 March 2019
Temperature: 33.0°C (91°F)
Dewpoint: 15.0°C (59°F) [RH = 34%]
Pressure (altimeter): 29.79 inches Hg (1009.0 mb)
Winds: from the ESE (120 degrees) at 16 MPH (14 knots; 7.2 m/s)
Visibility: 6 or more miles (10+ km)
Ceiling: ceiling and visibility are OK
Clouds: unknown
Weather: no significant weather observed at this time

METAR text: MNMG 232100Z 09016KT CAVOK 34/14 Q1010 A2983 NOSIG
Conditions at: MNMG (MANAGUA/AUGUSTO , NI) observed 2100 UTC 23 March 2019
Temperature: 34.0°C (93°F)
Dewpoint: 14.0°C (57°F) [RH = 30%]
Pressure (altimeter): 29.82 inches Hg (1010.0 mb)
Winds: from the E (90 degrees) at 18 MPH (16 knots; 8.2 m/s)
Visibility: 6 or more miles (10+ km)
Ceiling: ceiling and visibility are OK
Clouds: unknown
Weather: no significant weather observed at this time

METAR text: MNMG 232000Z 11012KT CAVOK 34/14 Q1010 A2985 NOSIG
Conditions at: MNMG (MANAGUA/AUGUSTO , NI) observed 2000 UTC 23 March 2019
Temperature: 34.0°C (93°F)
Dewpoint: 14.0°C (57°F) [RH = 30%]
Pressure (altimeter): 29.82 inches Hg (1010.0 mb)
Winds: from the ESE (110 degrees) at 14 MPH (12 knots; 6.2 m/s)
Visibility: 6 or more miles (10+ km)
Ceiling: ceiling and visibility are OK
Clouds: unknown
Weather: no significant weather observed at this time

METAR text: MNMG 231900Z 09016KT CAVOK 34/15 Q1011 A2988 NOSIG
Conditions at: MNMG (MANAGUA/AUGUSTO , NI) observed 1900 UTC 23 March 2019
Temperature: 34.0°C (93°F)
Dewpoint: 15.0°C (59°F) [RH = 32%]
Pressure (altimeter): 29.85 inches Hg (1011.0 mb)
Winds: from the E (90 degrees) at 18 MPH (16 knots; 8.2 m/s)
Visibility: 6 or more miles (10+ km)
Ceiling: ceiling and visibility are OK
Clouds: unknown
Weather: no significant weather observed at this time

METAR text: MNMG 231800Z 10016KT CAVOK 33/16 Q1012 A2991 NOSIG
Conditions at: MNMG (MANAGUA/AUGUSTO , NI) observed 1800 UTC 23 March 2019
Temperature: 33.0°C (91°F)
Dewpoint: 16.0°C (61°F) [RH = 36%]
Pressure (altimeter): 29.88 inches Hg (1012.0 mb)
Winds: from the E (100 degrees) at 18 MPH (16 knots; 8.2 m/s)
Visibility: 6 or more miles (10+ km)
Ceiling: ceiling and visibility are OK
Clouds: unknown
Weather: no significant weather observed at this time

METAR text: MNMG 231700Z 08014KT CAVOK 31/17 Q1014 A2995 NOSIG
Conditions at: MNMG (MANAGUA/AUGUSTO , NI) observed 1700 UTC 23 March 2019
Temperature: 31.0°C (88°F)
Dewpoint: 17.0°C (63°F) [RH = 43%]
Pressure (altimeter): 29.94 inches Hg (1014.0 mb)
Winds: from the E (80 degrees) at 16 MPH (14 knots; 7.2 m/s)
Visibility: 6 or more miles (10+ km)
Ceiling: ceiling and visibility are OK
Clouds: unknown
Weather: no significant weather observed at this time

METAR text: MNMG 231600Z 11010KT CAVOK 29/17 Q1015 A2998 NOSIG
Conditions at: MNMG (MANAGUA/AUGUSTO , NI) observed 1600 UTC 23 March 2019
Temperature: 29.0°C (84°F)
Dewpoint: 17.0°C (63°F) [RH = 48%]
Pressure (altimeter): 29.97 inches Hg (1015.0 mb)
Winds: from the ESE (110 degrees) at 12 MPH (10 knots; 5.1 m/s)
Visibility: 6 or more miles (10+ km)
Ceiling: ceiling and visibility are OK
Clouds: unknown
Weather: no significant weather observed at this time

METAR text: MNMG 231500Z 11010KT CAVOK 28/17 Q1015 A2999 NOSIG
Conditions at: MNMG (MANAGUA/AUGUSTO , NI) observed 1500 UTC 23 March 2019
Temperature: 28.0°C (82°F)
Dewpoint: 17.0°C (63°F) [RH = 51%]
Pressure (altimeter): 29.97 inches Hg (1015.0 mb)
Winds: from the ESE (110 degrees) at 12 MPH (10 knots; 5.1 m/s)
Visibility: 6 or more miles (10+ km)
Ceiling: ceiling and visibility are OK
Clouds: unknown
Weather: no significant weather observed at this time

METAR text: MNMG 231400Z 12010KT 9999 FEW020 27/17 Q1015 A2999 NOSIG
Conditions at: MNMG (MANAGUA/AUGUSTO , NI) observed 1400 UTC 23 March 2019
Temperature: 27.0°C (81°F)
Dewpoint: 17.0°C (63°F) [RH = 54%]
Pressure (altimeter): 29.97 inches Hg (1015.0 mb)
Winds: from the ESE (120 degrees) at 12 MPH (10 knots; 5.1 m/s)
Visibility: 6 or more miles (10+ km)
Ceiling: at least 12,000 feet AGL
Clouds: few clouds at 2000 feet AGL
Weather: no significant weather observed at this time

METAR text: MNMG 231300Z 12008KT 9000 FEW020 24/17 Q1014 A2996 HZ NOSIG
Conditions at: MNMG (MANAGUA/AUGUSTO , NI) observed 1300 UTC 23 March 2019
Temperature: 24.0°C (75°F)
Dewpoint: 17.0°C (63°F) [RH = 65%]
Pressure (altimeter): 29.94 inches Hg (1014.0 mb)
Winds: from the ESE (120 degrees) at 9 MPH (8 knots; 4.1 m/s)
Visibility: 6 miles ( 9 km)
Ceiling: at least 12,000 feet AGL
Clouds: few clouds at 2000 feet AGL
Weather: HZ  (haze)

METAR text: MNMG 231200Z 13008KT 9999 FEW020 22/18 Q1013 A2994 NOSIG
Conditions at: MNMG (MANAGUA/AUGUSTO , NI) observed 1200 UTC 23 March 2019
Temperature: 22.0°C (72°F)
Dewpoint: 18.0°C (64°F) [RH = 78%]
Pressure (altimeter): 29.91 inches Hg (1013.0 mb)
Winds: from the SE (130 degrees) at 9 MPH (8 knots; 4.1 m/s)
Visibility: 6 or more miles (10+ km)
Ceiling: at least 12,000 feet AGL
Clouds: few clouds at 2000 feet AGL
Weather: no significant weather observed at this time

METAR text: MNMG 231100Z 14008KT CAVOK 9999 22/18 Q1013 A2992 NOSIG
Conditions at: MNMG (MANAGUA/AUGUSTO , NI) observed 1100 UTC 23 March 2019
Temperature: 22.0°C (72°F)
Dewpoint: 18.0°C (64°F) [RH = 78%]
Pressure (altimeter): 29.91 inches Hg (1013.0 mb)
Winds: from the SE (140 degrees) at 9 MPH (8 knots; 4.1 m/s)
Visibility: 6 or more miles (10+ km)
Ceiling: ceiling and visibility are OK
Clouds: unknown
Weather: no significant weather observed at this time

METAR text: MNMG 231000Z 13004KT 9999 FEW020 22/18 Q1012 A2990 NOSIG
Conditions at: MNMG (MANAGUA/AUGUSTO , NI) observed 1000 UTC 23 March 2019
Temperature: 22.0°C (72°F)
Dewpoint: 18.0°C (64°F) [RH = 78%]
Pressure (altimeter): 29.88 inches Hg (1012.0 mb)
Winds: from the SE (130 degrees) at 5 MPH (4 knots; 2.1 m/s)
Visibility: 6 or more miles (10+ km)
Ceiling: at least 12,000 feet AGL
Clouds: few clouds at 2000 feet AGL
Weather: no significant weather observed at this time

METAR text: MNMG 230900Z 12006KT 9999 FEW020 23/18 Q1012 A2990 NOSIG
Conditions at: MNMG (MANAGUA/AUGUSTO , NI) observed 0900 UTC 23 March 2019
Temperature: 23.0°C (73°F)
Dewpoint: 18.0°C (64°F) [RH = 73%]
Pressure (altimeter): 29.88 inches Hg (1012.0 mb)
Winds: from the ESE (120 degrees) at 7 MPH (6 knots; 3.1 m/s)
Visibility: 6 or more miles (10+ km)
Ceiling: at least 12,000 feet AGL
Clouds: few clouds at 2000 feet AGL
Weather: no significant weather observed at this time

METAR text: MNMG 230800Z 11008KT 9999 FEW020 25/19 Q1012 A2991 NOSIG
Conditions at: MNMG (MANAGUA/AUGUSTO , NI) observed 0800 UTC 23 March 2019
Temperature: 25.0°C (77°F)
Dewpoint: 19.0°C (66°F) [RH = 69%]
Pressure (altimeter): 29.88 inches Hg (1012.0 mb)
Winds: from the ESE (110 degrees) at 9 MPH (8 knots; 4.1 m/s)
Visibility: 6 or more miles (10+ km)
Ceiling: at least 12,000 feet AGL
Clouds: few clouds at 2000 feet AGL
Weather: no significant weather observed at this time

METAR text: MNMG 230700Z 10010KT 9999 FEW020 25/19 Q1013 A2992 NOSIG
Conditions at: MNMG (MANAGUA/AUGUSTO , NI) observed 0700 UTC 23 March 2019
Temperature: 25.0°C (77°F)
Dewpoint: 19.0°C (66°F) [RH = 69%]
Pressure (altimeter): 29.91 inches Hg (1013.0 mb)
Winds: from the E (100 degrees) at 12 MPH (10 knots; 5.1 m/s)
Visibility: 6 or more miles (10+ km)
Ceiling: at least 12,000 feet AGL
Clouds: few clouds at 2000 feet AGL
Weather: no significant weather observed at this time

METAR text: MNMG 230600Z 11010KT FEW020 26/19 Q1013 A2993 NOSIG
Conditions at: MNMG (MANAGUA/AUGUSTO , NI) observed 0600 UTC 23 March 2019
Temperature: 26.0°C (79°F)
Dewpoint: 19.0°C (66°F) [RH = 65%]
Pressure (altimeter): 29.91 inches Hg (1013.0 mb)
Winds: from the ESE (110 degrees) at 12 MPH (10 knots; 5.1 m/s)
Visibility: missing
Ceiling: at least 12,000 feet AGL
Clouds: few clouds at 2000 feet AGL
Weather: no significant weather observed at this time

METAR text: MNMG 230500Z 09012KT FEW020 27/19 Q1014 A2995 NOSIG
Conditions at: MNMG (MANAGUA/AUGUSTO , NI) observed 0500 UTC 23 March 2019
Temperature: 27.0°C (81°F)
Dewpoint: 19.0°C (66°F) [RH = 62%]
Pressure (altimeter): 29.94 inches Hg (1014.0 mb)
Winds: from the E (90 degrees) at 14 MPH (12 knots; 6.2 m/s)
Visibility: missing
Ceiling: at least 12,000 feet AGL
Clouds: few clouds at 2000 feet AGL
Weather: no significant weather observed at this time

METAR text: MNMG 230400Z 10014KT CAVOK 28/16 Q1014 A2995 NOSIG
Conditions at: MNMG (MANAGUA/AUGUSTO , NI) observed 0400 UTC 23 March 2019
Temperature: 28.0°C (82°F)
Dewpoint: 16.0°C (61°F) [RH = 48%]
Pressure (altimeter): 29.94 inches Hg (1014.0 mb)
Winds: from the E (100 degrees) at 16 MPH (14 knots; 7.2 m/s)
Visibility: 6 or more miles (10+ km)
Ceiling: ceiling and visibility are OK
Clouds: unknown
Weather: no significant weather observed at this time

METAR text: MNMG 230300Z 09012KT CAVOK 28/16 Q1013 A2993 NOSIG
Conditions at: MNMG (MANAGUA/AUGUSTO , NI) observed 0300 UTC 23 March 2019
Temperature: 28.0°C (82°F)
Dewpoint: 16.0°C (61°F) [RH = 48%]
Pressure (altimeter): 29.91 inches Hg (1013.0 mb)
Winds: from the E (90 degrees) at 14 MPH (12 knots; 6.2 m/s)
Visibility: 6 or more miles (10+ km)
Ceiling: ceiling and visibility are OK
Clouds: unknown
Weather: no significant weather observed at this time

METAR text: MNMG 230200Z 09008KT CAVOK 28/18 Q1012 A2991 NOSIG
Conditions at: MNMG (MANAGUA/AUGUSTO , NI) observed 0200 UTC 23 March 2019
Temperature: 28.0°C (82°F)
Dewpoint: 18.0°C (64°F) [RH = 55%]
Pressure (altimeter): 29.88 inches Hg (1012.0 mb)
Winds: from the E (90 degrees) at 9 MPH (8 knots; 4.1 m/s)
Visibility: 6 or more miles (10+ km)
Ceiling: ceiling and visibility are OK
Clouds: unknown
Weather: no significant weather observed at this time

METAR text: MNMG 230100Z 08008KT CAVOK 30/17 Q1012 A2989 NOSIG
Conditions at: MNMG (MANAGUA/AUGUSTO , NI) observed 0100 UTC 23 March 2019
Temperature: 30.0°C (86°F)
Dewpoint: 17.0°C (63°F) [RH = 46%]
Pressure (altimeter): 29.88 inches Hg (1012.0 mb)
Winds: from the E (80 degrees) at 9 MPH (8 knots; 4.1 m/s)
Visibility: 6 or more miles (10+ km)
Ceiling: ceiling and visibility are OK
Clouds: unknown
Weather: no significant weather observed at this time

METAR text: MNMG 220010Z 07012KT CAVOK 31/15 Q1010 A2984 NOSIG
Conditions at: MNMG (MANAGUA/AUGUSTO , NI) observed 0010 UTC 23 March 2019
Temperature: 31.0°C (88°F)
Dewpoint: 15.0°C (59°F) [RH = 38%]
Pressure (altimeter): 29.82 inches Hg (1010.0 mb)
Winds: from the ENE (70 degrees) at 14 MPH (12 knots; 6.2 m/s)
Visibility: 6 or more miles (10+ km)
Ceiling: ceiling and visibility are OK
Clouds: unknown
Weather: no significant weather observed at this time

METAR text: MNMG 222300Z 05014KT CAVOK 33/19 Q1009 2982 NOSIG
Conditions at: MNMG (MANAGUA/AUGUSTO , NI) observed 2300 UTC 22 March 2019
Temperature: 33.0°C (91°F)
Dewpoint: 19.0°C (66°F) [RH = 44%]
Pressure (altimeter): 29.79 inches Hg (1009.0 mb)
Winds: from the NE (50 degrees) at 16 MPH (14 knots; 7.2 m/s)
Visibility: 6 or more miles (10+ km)
Ceiling: ceiling and visibility are OK
Clouds: unknown
Weather: no significant weather observed at this time

METAR text: MNMG 222200Z 10016KT CAVOK 34/14 Q1009 2981 NOSIG
Conditions at: MNMG (MANAGUA/AUGUSTO , NI) observed 2200 UTC 22 March 2019
Temperature: 34.0°C (93°F)
Dewpoint: 14.0°C (57°F) [RH = 30%]
Pressure (altimeter): 29.79 inches Hg (1009.0 mb)
Winds: from the E (100 degrees) at 18 MPH (16 knots; 8.2 m/s)
Visibility: 6 or more miles (10+ km)
Ceiling: ceiling and visibility are OK
Clouds: unknown
Weather: no significant weather observed at this time

METAR text: MNMG 222100Z 09016KT CAVOK 35/14 Q1009 2980 NOSIG
Conditions at: MNMG (MANAGUA/AUGUSTO , NI) observed 2100 UTC 22 March 2019
Temperature: 35.0°C (95°F)
Dewpoint: 14.0°C (57°F) [RH = 28%]
Pressure (altimeter): 29.79 inches Hg (1009.0 mb)
Winds: from the E (90 degrees) at 18 MPH (16 knots; 8.2 m/s)
Visibility: 6 or more miles (10+ km)
Ceiling: ceiling and visibility are OK
Clouds: unknown
Weather: no significant weather observed at this time

Forecast for: MNMG (MANAGUA/AUGUSTO , NI)
Text: MNMG 240200Z 2406/2506 11008KT CAVOK
Forecast period: 0600 UTC 24 March 2019 to 0600 UTC 25 March 2019
Forecast type: FROM: standard forecast or significant change
Winds: from the ESE (110 degrees) at 9 MPH (8 knots; 4.1 m/s)
Visibility: 6 or more miles 10+ km)
Ceiling: unknown
Clouds: missing
Weather: NSW  (no significant weather)
Text: TEMPO 2412/2418 06012KT 9999 FEW022
Forecast period: 1200 to 1800 UTC 24 March 2019
Forecast type: TEMPORARY: The following changes expected for less than half the time period
Winds: from the ENE (60 degrees) at 14 MPH (12 knots; 6.2 m/s)
Visibility: 6 or more miles 10+ km)
Ceiling: at least 12,000 feet AGL
Clouds: few clouds at 2200 feet AGL
Weather: no significant weather forecast for this period